createdAt,value
2019-05-30T00:00:26.471Z,11.40
2019-05-30T00:01:02.089Z,11.34
2019-05-30T00:01:38.159Z,11.25
2019-05-30T00:02:13.682Z,11.29
2019-05-30T00:02:48.816Z,11.29
2019-05-30T00:03:25.094Z,11.28
2019-05-30T00:04:03.059Z,11.28
2019-05-30T00:04:38.022Z,11.30
2019-05-30T00:05:14.034Z,11.24
2019-05-30T00:05:50.776Z,11.20
2019-05-30T00:06:25.932Z,11.15
2019-05-30T00:07:02.512Z,11.15
2019-05-30T00:07:38.589Z,11.09
2019-05-30T00:08:13.909Z,11.13
2019-05-30T00:08:50.228Z,11.19
2019-05-30T00:09:26.355Z,11.08
2019-05-30T00:10:02.822Z,11.09
2019-05-30T00:10:38.888Z,11.05
2019-05-30T00:11:14.993Z,11.04
2019-05-30T00:11:50.313Z,11.05
2019-05-30T00:12:26.531Z,11.09
2019-05-30T00:13:02.929Z,11.06
2019-05-30T00:13:38.301Z,11.08
2019-05-30T00:14:14.519Z,11.02
2019-05-30T00:14:50.622Z,10.99
2019-05-30T00:15:26.468Z,10.96
2019-05-30T00:16:03.151Z,10.94
2019-05-30T00:16:39.042Z,10.94
2019-05-30T00:17:15.451Z,11.01
2019-05-30T00:17:51.531Z,10.91
2019-05-30T00:18:27.685Z,10.94
2019-05-30T00:19:02.978Z,10.95
2019-05-30T00:19:38.833Z,10.89
2019-05-30T00:20:15.103Z,10.90
2019-05-30T00:20:50.586Z,10.87
2019-05-30T00:21:26.599Z,10.87
2019-05-30T00:22:03.867Z,10.93
2019-05-30T00:22:39.871Z,10.92
2019-05-30T00:23:16.250Z,10.79
2019-05-30T00:23:52.861Z,10.82
2019-05-30T00:24:28.149Z,10.86
2019-05-30T00:25:04.329Z,10.85
2019-05-30T00:25:40.726Z,10.89
2019-05-30T00:26:16.112Z,10.72
2019-05-30T00:26:52.324Z,10.75
2019-05-30T00:27:29.206Z,10.76
2019-05-30T00:28:05.130Z,10.69
2019-05-30T00:28:41.083Z,10.76
2019-05-30T00:29:16.742Z,10.73
2019-05-30T00:29:51.578Z,10.74
2019-05-30T00:30:27.148Z,10.71
2019-05-30T00:31:02.745Z,10.66
2019-05-30T00:31:37.439Z,10.70
2019-05-30T00:32:13.163Z,10.64
2019-05-30T00:32:48.596Z,10.63
2019-05-30T00:33:23.296Z,10.66
2019-05-30T00:33:59.555Z,10.65
2019-05-30T00:34:34.993Z,10.64
2019-05-30T00:35:10.116Z,10.62
2019-05-30T00:35:45.662Z,10.61
2019-05-30T00:36:24.261Z,10.60
2019-05-30T00:36:59.861Z,10.59
2019-05-30T00:37:35.070Z,10.57
2019-05-30T00:38:10.972Z,10.47
2019-05-30T00:38:45.668Z,10.55
2019-05-30T00:39:21.292Z,10.37
2019-05-30T00:39:57.825Z,10.40
2019-05-30T00:40:32.638Z,10.44
2019-05-30T00:41:07.857Z,10.38
2019-05-30T00:41:43.355Z,10.31
2019-05-30T00:42:18.113Z,10.37
2019-05-30T00:42:53.624Z,10.30
2019-05-30T00:43:29.278Z,10.32
2019-05-30T00:44:04.395Z,10.32
2019-05-30T00:44:40.206Z,10.35
2019-05-30T00:45:20.759Z,10.33
2019-05-30T00:45:52.565Z,10.32
2019-05-30T00:46:28.088Z,10.35
2019-05-30T00:47:04.467Z,10.38
2019-05-30T00:47:39.294Z,10.40
2019-05-30T00:48:14.839Z,10.38
2019-05-30T00:48:50.297Z,10.35
2019-05-30T00:49:25.392Z,10.31
2019-05-30T00:50:00.542Z,10.22
2019-05-30T00:50:36.310Z,10.36
2019-05-30T00:51:11.243Z,10.35
2019-05-30T00:51:46.733Z,10.32
2019-05-30T00:52:21.856Z,10.40
2019-05-30T00:52:56.570Z,10.32
2019-05-30T00:53:32.101Z,10.40
2019-05-30T00:54:07.945Z,10.40
2019-05-30T00:54:42.930Z,10.36
2019-05-30T00:55:18.442Z,10.31
2019-05-30T00:55:53.537Z,10.40
2019-05-30T00:56:28.293Z,10.39
2019-05-30T00:57:04.913Z,10.44
2019-05-30T00:57:40.631Z,10.42
2019-05-30T00:58:15.406Z,10.45
2019-05-30T00:58:50.934Z,10.37
2019-05-30T00:59:26.741Z,10.48
2019-05-30T01:00:02.706Z,10.51
2019-05-30T01:00:43.385Z,10.50
2019-05-30T01:01:15.254Z,10.52
2019-05-30T01:01:49.848Z,10.63
2019-05-30T01:02:25.309Z,10.58
2019-05-30T01:03:02.827Z,10.56
2019-05-30T01:03:37.353Z,10.53
2019-05-30T01:04:12.717Z,10.54
2019-05-30T01:04:48.604Z,10.53
2019-05-30T01:05:27.018Z,10.58
2019-05-30T01:06:00.880Z,10.48
2019-05-30T01:06:36.373Z,10.44
2019-05-30T01:07:11.128Z,10.48
2019-05-30T01:07:46.577Z,10.47
2019-05-30T01:08:22.229Z,10.43
2019-05-30T01:08:57.015Z,10.38
2019-05-30T01:09:33.057Z,10.32
2019-05-30T01:10:10.600Z,10.29
2019-05-30T01:10:45.453Z,10.32
2019-05-30T01:11:20.966Z,10.27
2019-05-30T01:11:57.072Z,10.26
2019-05-30T01:12:32.000Z,10.32
2019-05-30T01:13:08.193Z,10.37
2019-05-30T01:13:43.792Z,10.43
2019-05-30T01:14:18.525Z,10.41
2019-05-30T01:14:53.710Z,10.46
2019-05-30T01:15:29.422Z,10.54
2019-05-30T01:16:05.481Z,10.60
2019-05-30T01:16:42.713Z,10.63
2019-05-30T01:17:17.942Z,10.65
2019-05-30T01:17:52.730Z,10.69
2019-05-30T01:18:28.327Z,10.74
2019-05-30T01:19:05.199Z,10.65
2019-05-30T01:19:40.081Z,10.58
2019-05-30T01:20:15.792Z,10.62
2019-05-30T01:20:51.372Z,10.71
2019-05-30T01:21:26.133Z,10.71
2019-05-30T01:22:01.764Z,10.71
2019-05-30T01:22:37.403Z,10.64
2019-05-30T01:23:12.176Z,10.62
2019-05-30T01:23:47.891Z,10.57
2019-05-30T01:24:23.401Z,10.65
2019-05-30T01:24:59.160Z,10.69
2019-05-30T01:25:35.046Z,10.70
2019-05-30T01:26:10.682Z,10.69
2019-05-30T01:26:45.604Z,10.72
2019-05-30T01:27:20.591Z,10.72
2019-05-30T01:27:55.558Z,10.68
2019-05-30T01:28:30.585Z,10.63
2019-05-30T01:29:07.644Z,10.54
2019-05-30T01:29:43.351Z,10.59
2019-05-30T01:30:19.644Z,10.66
2019-05-30T01:31:01.581Z,10.69
2019-05-30T01:31:32.417Z,10.66
2019-05-30T01:32:24.988Z,10.59
2019-05-30T01:32:59.778Z,10.62
2019-05-30T01:33:35.251Z,10.57
2019-05-30T01:34:10.904Z,10.61
2019-05-30T01:34:45.578Z,10.54
2019-05-30T01:35:21.321Z,10.48
2019-05-30T01:35:57.792Z,10.47
2019-05-30T01:36:32.618Z,10.48
2019-05-30T01:37:08.082Z,10.53
2019-05-30T01:37:43.777Z,10.52
2019-05-30T01:38:18.627Z,10.47
2019-05-30T01:38:54.187Z,10.51
2019-05-30T01:39:29.740Z,10.43
2019-05-30T01:40:06.507Z,10.38
2019-05-30T01:40:42.141Z,10.39
2019-05-30T01:41:17.931Z,10.35
2019-05-30T01:41:52.684Z,10.32
2019-05-30T01:42:27.771Z,10.33
2019-05-30T01:43:04.083Z,10.31
2019-05-30T01:43:38.881Z,10.22
2019-05-30T01:44:14.652Z,10.26
2019-05-30T01:44:50.111Z,10.25
2019-05-30T01:45:24.898Z,10.25
2019-05-30T01:46:00.379Z,10.29
2019-05-30T01:46:35.964Z,10.32
2019-05-30T01:47:10.719Z,10.31
2019-05-30T01:47:46.241Z,10.25
2019-05-30T01:48:21.243Z,10.27
2019-05-30T01:48:55.935Z,10.22
2019-05-30T01:49:31.312Z,10.22
2019-05-30T01:50:11.757Z,10.27
2019-05-30T01:50:46.717Z,10.31
2019-05-30T01:51:22.221Z,10.30
2019-05-30T01:51:58.350Z,10.27
2019-05-30T01:52:33.357Z,10.25
2019-05-30T01:53:09.037Z,10.20
2019-05-30T01:53:44.725Z,10.14
2019-05-30T01:54:19.578Z,10.19
2019-05-30T01:54:55.006Z,10.19
2019-05-30T01:55:30.198Z,10.13
2019-05-30T01:56:05.131Z,10.10
2019-05-30T01:56:40.708Z,10.16
2019-05-30T01:57:15.690Z,10.14
2019-05-30T01:57:50.410Z,10.21
2019-05-30T01:58:25.915Z,10.19
2019-05-30T01:59:02.578Z,10.20
2019-05-30T01:59:37.564Z,10.17
2019-05-30T02:00:21.483Z,10.17
2019-05-30T02:00:57.018Z,10.22
2019-05-30T02:01:31.809Z,10.09
2019-05-30T02:02:07.625Z,10.09
2019-05-30T02:02:43.079Z,10.13
2019-05-30T02:03:17.818Z,10.17
2019-05-30T02:03:53.266Z,10.18
2019-05-30T02:04:28.895Z,10.18
2019-05-30T02:05:05.015Z,10.21
2019-05-30T02:05:40.685Z,10.20
2019-05-30T02:06:16.413Z,10.18
2019-05-30T02:06:51.158Z,10.15
2019-05-30T02:07:26.774Z,10.16
2019-05-30T02:08:03.101Z,10.14
2019-05-30T02:08:37.932Z,10.14
2019-05-30T02:09:13.362Z,10.12
2019-05-30T02:09:48.990Z,10.07
2019-05-30T02:10:23.811Z,10.03
2019-05-30T02:10:59.259Z,10.07
2019-05-30T02:11:35.032Z,10.07
2019-05-30T02:12:09.839Z,10.00
2019-05-30T02:12:45.396Z,9.97
2019-05-30T02:13:20.868Z,9.96
2019-05-30T02:13:55.679Z,10.00
2019-05-30T02:14:31.195Z,9.95
2019-05-30T02:15:08.005Z,10.01
2019-05-30T02:15:42.831Z,9.98
2019-05-30T02:16:18.331Z,9.94
2019-05-30T02:16:53.333Z,9.90
2019-05-30T02:17:28.070Z,9.96
2019-05-30T02:18:03.542Z,9.90
2019-05-30T02:18:39.058Z,9.88
2019-05-30T02:19:13.975Z,9.95
2019-05-30T02:19:49.597Z,10.02
2019-05-30T02:20:25.161Z,9.95
2019-05-30T02:20:59.854Z,10.00
2019-05-30T02:21:35.430Z,9.96
2019-05-30T02:22:11.058Z,9.85
2019-05-30T02:22:45.639Z,9.85
2019-05-30T02:23:21.077Z,9.90
2019-05-30T02:23:56.514Z,9.85
2019-05-30T02:24:31.411Z,9.89
2019-05-30T02:25:11.227Z,9.89
2019-05-30T02:25:46.841Z,9.85
2019-05-30T02:26:21.579Z,9.78
2019-05-30T02:26:57.141Z,9.81
2019-05-30T02:27:32.831Z,9.86
2019-05-30T02:28:08.252Z,9.94
2019-05-30T02:28:45.402Z,9.89
2019-05-30T02:29:20.916Z,9.88
2019-05-30T02:29:55.758Z,9.94
2019-05-30T02:30:31.460Z,9.98
2019-05-30T02:31:07.173Z,9.96
2019-05-30T02:31:43.630Z,9.94
2019-05-30T02:32:19.163Z,10.00
2019-05-30T02:32:54.882Z,10.03
2019-05-30T02:33:29.526Z,9.97
2019-05-30T02:34:07.213Z,9.94
2019-05-30T02:34:42.553Z,9.95
2019-05-30T02:35:17.428Z,9.95
2019-05-30T02:35:52.959Z,9.95
2019-05-30T02:36:28.566Z,9.93
2019-05-30T02:37:05.131Z,9.92
2019-05-30T02:37:40.242Z,9.93
2019-05-30T02:38:15.868Z,9.90
2019-05-30T02:38:50.669Z,9.90
2019-05-30T02:39:26.133Z,9.85
2019-05-30T02:40:03.918Z,9.87
2019-05-30T02:40:37.988Z,9.86
2019-05-30T02:41:13.602Z,9.76
2019-05-30T02:41:49.342Z,9.72
2019-05-30T02:42:24.426Z,9.77
2019-05-30T02:43:01.239Z,9.57
2019-05-30T02:43:37.405Z,9.63
2019-05-30T02:44:12.600Z,9.62
2019-05-30T02:44:48.123Z,9.63
2019-05-30T02:45:23.732Z,9.67
2019-05-30T02:45:58.383Z,9.65
2019-05-30T02:46:34.087Z,9.68
2019-05-30T02:47:11.457Z,9.59
2019-05-30T02:47:46.221Z,9.62
2019-05-30T02:48:21.199Z,9.64
2019-05-30T02:48:59.230Z,9.66
2019-05-30T02:49:33.000Z,9.62
2019-05-30T02:50:13.281Z,9.60
2019-05-30T02:50:47.613Z,9.58
2019-05-30T02:51:22.517Z,9.56
2019-05-30T02:51:58.389Z,9.56
2019-05-30T02:52:33.995Z,9.53
2019-05-30T02:53:10.958Z,9.41
2019-05-30T02:53:46.220Z,9.41
2019-05-30T02:54:21.839Z,9.42
2019-05-30T02:54:56.498Z,9.46
2019-05-30T02:55:31.930Z,9.44
2019-05-30T02:56:07.988Z,9.35
2019-05-30T02:56:43.983Z,9.37
2019-05-30T02:57:19.422Z,9.35
2019-05-30T02:57:55.021Z,9.28
2019-05-30T02:58:29.872Z,9.30
2019-05-30T02:59:06.221Z,9.25
2019-05-30T02:59:43.160Z,9.26
2019-05-30T03:00:21.348Z,9.28
2019-05-30T03:00:57.479Z,9.24
2019-05-30T03:01:32.997Z,9.23
2019-05-30T03:02:11.989Z,9.26
2019-05-30T03:02:44.438Z,9.28
2019-05-30T03:03:19.869Z,9.20
2019-05-30T03:03:54.693Z,9.20
2019-05-30T03:04:30.132Z,9.23
2019-05-30T03:05:11.950Z,9.24
2019-05-30T03:05:45.276Z,9.14
2019-05-30T03:06:21.063Z,9.17
2019-05-30T03:06:56.245Z,9.18
2019-05-30T03:07:31.049Z,9.20
2019-05-30T03:08:09.274Z,9.15
2019-05-30T03:08:44.097Z,9.22
2019-05-30T03:09:18.875Z,9.24
2019-05-30T03:09:54.635Z,9.28
2019-05-30T03:10:30.614Z,9.31
2019-05-30T03:11:07.857Z,9.32
2019-05-30T03:11:42.918Z,9.32
2019-05-30T03:12:18.466Z,9.24
2019-05-30T03:12:53.343Z,9.28
2019-05-30T03:13:29.042Z,9.35
2019-05-30T03:14:06.466Z,9.30
2019-05-30T03:14:41.227Z,9.34
2019-05-30T03:15:16.818Z,9.28
2019-05-30T03:15:52.595Z,9.28
2019-05-30T03:16:27.245Z,9.24
2019-05-30T03:17:05.348Z,9.24
2019-05-30T03:17:39.989Z,9.24
2019-05-30T03:18:15.289Z,9.23
2019-05-30T03:18:51.220Z,9.24
2019-05-30T03:19:26.937Z,9.27
2019-05-30T03:20:03.755Z,9.15
2019-05-30T03:20:39.228Z,9.21
2019-05-30T03:21:15.507Z,9.22
2019-05-30T03:21:50.698Z,9.11
2019-05-30T03:22:26.321Z,9.14
2019-05-30T03:23:03.225Z,9.08
2019-05-30T03:23:37.806Z,9.08
2019-05-30T03:24:14.342Z,8.94
2019-05-30T03:24:50.088Z,8.93
2019-05-30T03:25:24.937Z,8.87
2019-05-30T03:26:00.438Z,8.81
2019-05-30T03:26:36.009Z,8.78
2019-05-30T03:27:12.334Z,8.81
2019-05-30T03:27:48.045Z,8.78
2019-05-30T03:28:23.725Z,8.79
2019-05-30T03:28:58.514Z,8.80
2019-05-30T03:29:33.949Z,8.82
2019-05-30T03:30:22.216Z,8.71
2019-05-30T03:30:47.004Z,8.70
2019-05-30T03:31:29.354Z,8.78
2019-05-30T03:32:45.086Z,8.80
2019-05-30T03:33:03.332Z,8.71
2019-05-30T03:33:36.046Z,8.68
2019-05-30T03:33:53.505Z,8.63
2019-05-30T03:34:29.446Z,8.67
2019-05-30T03:35:17.661Z,8.70
2019-05-30T03:35:44.633Z,8.51
2019-05-30T03:36:28.614Z,8.51
2019-05-30T03:36:56.361Z,8.58
2019-05-30T03:37:31.338Z,8.58
2019-05-30T03:38:07.959Z,8.56
2019-05-30T03:38:42.987Z,8.52
2019-05-30T03:39:18.178Z,8.52
2019-05-30T03:39:52.977Z,8.54
2019-05-30T03:40:29.842Z,8.50
2019-05-30T03:41:07.491Z,8.57
2019-05-30T03:41:42.024Z,8.54
2019-05-30T03:42:17.559Z,8.53
2019-05-30T03:42:53.157Z,8.51
2019-05-30T03:43:27.888Z,8.50
2019-05-30T03:44:04.012Z,8.43
2019-05-30T03:44:40.616Z,8.50
2019-05-30T03:45:16.570Z,8.52
2019-05-30T03:45:52.358Z,8.59
2019-05-30T03:46:35.213Z,8.50
2019-05-30T03:47:13.799Z,8.41
2019-05-30T03:47:56.145Z,8.47
2019-05-30T03:48:33.057Z,8.46
2019-05-30T03:49:12.803Z,8.47
2019-05-30T03:49:51.612Z,8.46
2019-05-30T03:50:30.131Z,8.42
2019-05-30T03:51:09.404Z,8.46
2019-05-30T03:51:45.873Z,8.49
2019-05-30T03:52:21.732Z,8.45
2019-05-30T03:52:56.965Z,8.46
2019-05-30T03:53:32.850Z,8.45
2019-05-30T03:54:09.873Z,8.49
2019-05-30T03:54:45.359Z,8.52
2019-05-30T03:55:22.394Z,8.56
2019-05-30T03:56:06.542Z,8.55
2019-05-30T03:56:48.740Z,8.59
2019-05-30T03:57:28.835Z,8.61
2019-05-30T03:58:29.313Z,8.63
2019-05-30T03:59:18.433Z,8.67
2019-05-30T04:00:14.504Z,8.65
2019-05-30T04:00:56.905Z,8.66
2019-05-30T04:01:41.990Z,8.63
2019-05-30T04:02:55.401Z,8.66
2019-05-30T04:03:41.918Z,8.71
2019-05-30T04:04:27.110Z,8.73
2019-05-30T04:05:22.311Z,8.81
2019-05-30T04:06:02.496Z,8.83
2019-05-30T04:06:44.375Z,8.78
2019-05-30T04:07:24.324Z,8.79
2019-05-30T04:08:00.777Z,8.81
2019-05-30T04:08:37.284Z,8.86
2019-05-30T04:09:21.932Z,8.79
2019-05-30T04:09:57.439Z,8.87
2019-05-30T04:10:36.339Z,8.86
2019-05-30T04:11:16.588Z,8.85
2019-05-30T04:12:12.728Z,8.83
2019-05-30T04:13:12.131Z,8.81
2019-05-30T04:13:55.041Z,8.86
2019-05-30T04:14:35.140Z,8.95
2019-05-30T04:15:32.281Z,8.98
2019-05-30T04:16:08.661Z,8.93
2019-05-30T04:16:43.720Z,9.04
2019-05-30T04:17:19.938Z,9.08
2019-05-30T04:17:55.150Z,9.05
2019-05-30T04:18:30.593Z,9.06
2019-05-30T04:19:05.326Z,9.03
2019-05-30T04:19:40.902Z,9.01
2019-05-30T04:20:20.572Z,8.95
2019-05-30T04:20:53.069Z,8.96
2019-05-30T04:21:28.701Z,9.01
2019-05-30T04:22:04.150Z,9.00
2019-05-30T04:22:38.943Z,8.98
2019-05-30T04:23:14.997Z,8.98
2019-05-30T04:23:51.621Z,8.99
2019-05-30T04:24:26.368Z,8.98
2019-05-30T04:25:01.825Z,9.03
2019-05-30T04:25:37.572Z,9.03
2019-05-30T04:26:13.640Z,8.97
2019-05-30T04:26:48.806Z,9.05
2019-05-30T04:27:24.320Z,9.05
2019-05-30T04:27:59.232Z,9.11
2019-05-30T04:28:34.902Z,9.06
2019-05-30T04:29:12.031Z,9.10
2019-05-30T04:29:47.043Z,9.07
2019-05-30T04:30:22.104Z,9.09
2019-05-30T04:30:57.127Z,9.02
2019-05-30T04:31:31.876Z,9.06
2019-05-30T04:32:08.478Z,8.95
2019-05-30T04:32:43.900Z,9.05
2019-05-30T04:33:31.695Z,9.12
2019-05-30T04:33:55.891Z,9.06
2019-05-30T04:34:31.301Z,9.11
2019-05-30T04:35:06.361Z,9.09
2019-05-30T04:35:41.763Z,9.07
2019-05-30T04:36:18.954Z,9.05
2019-05-30T04:36:53.958Z,9.10
2019-05-30T04:37:29.606Z,9.16
2019-05-30T04:38:04.653Z,9.17
2019-05-30T04:38:39.230Z,9.22
2019-05-30T04:39:15.137Z,9.24
2019-05-30T04:39:50.807Z,9.18
2019-05-30T04:40:25.477Z,9.14
2019-05-30T04:41:01.091Z,9.17
2019-05-30T04:41:36.529Z,9.13
2019-05-30T04:42:11.440Z,9.15
2019-05-30T04:42:47.560Z,9.13
2019-05-30T04:43:22.984Z,9.16
2019-05-30T04:43:57.893Z,9.20
2019-05-30T04:44:32.846Z,9.24
2019-05-30T04:45:11.777Z,9.20
2019-05-30T04:45:46.836Z,9.20
2019-05-30T04:46:22.305Z,9.19
2019-05-30T04:46:57.807Z,9.20
2019-05-30T04:47:32.530Z,9.28
2019-05-30T04:48:09.704Z,9.28
2019-05-30T04:48:45.312Z,9.35
2019-05-30T04:49:21.617Z,9.37
2019-05-30T04:49:57.191Z,9.35
2019-05-30T04:50:32.848Z,9.41
2019-05-30T04:51:07.611Z,9.34
2019-05-30T04:51:43.145Z,9.34
2019-05-30T04:52:23.994Z,9.38
2019-05-30T04:52:55.375Z,9.41
2019-05-30T04:53:30.386Z,9.52
2019-05-30T04:54:12.178Z,9.61
2019-05-30T04:54:46.800Z,9.64
2019-05-30T04:55:23.147Z,9.52
2019-05-30T04:55:58.804Z,9.55
2019-05-30T04:56:33.536Z,9.63
2019-05-30T04:57:10.698Z,9.69
2019-05-30T04:57:46.520Z,9.63
2019-05-30T04:58:24.172Z,9.72
2019-05-30T04:58:58.651Z,9.73
2019-05-30T04:59:34.171Z,9.81
2019-05-30T05:00:10.922Z,9.80
2019-05-30T05:00:46.346Z,9.80
2019-05-30T05:01:22.215Z,9.79
2019-05-30T05:01:57.272Z,9.81
2019-05-30T05:02:32.830Z,9.88
2019-05-30T05:03:07.968Z,9.82
2019-05-30T05:03:46.240Z,9.85
2019-05-30T05:04:19.552Z,9.88
2019-05-30T05:04:55.240Z,9.87
2019-05-30T05:05:30.001Z,9.87
2019-05-30T05:06:05.500Z,9.94
2019-05-30T05:06:41.039Z,9.96
2019-05-30T05:07:15.759Z,9.98
2019-05-30T05:07:51.496Z,9.89
2019-05-30T05:08:26.929Z,9.97
2019-05-30T05:09:01.870Z,10.02
2019-05-30T05:09:37.316Z,9.98
2019-05-30T05:10:13.954Z,10.04
2019-05-30T05:10:48.689Z,10.07
2019-05-30T05:11:25.436Z,10.13
2019-05-30T05:12:00.686Z,10.19
2019-05-30T05:12:35.556Z,10.09
2019-05-30T05:13:12.253Z,10.16
2019-05-30T05:13:47.481Z,10.17
2019-05-30T05:14:22.769Z,10.26
2019-05-30T05:14:58.590Z,10.23
2019-05-30T05:15:34.104Z,10.27
2019-05-30T05:16:24.155Z,10.32
2019-05-30T05:16:46.109Z,10.36
2019-05-30T05:17:21.195Z,10.33
2019-05-30T05:17:55.940Z,10.34
2019-05-30T05:18:31.533Z,10.28
2019-05-30T05:19:07.117Z,10.30
2019-05-30T05:19:41.840Z,10.37
2019-05-30T05:20:19.228Z,10.41
2019-05-30T05:20:54.817Z,10.39
2019-05-30T05:21:29.749Z,10.42
2019-05-30T05:22:04.796Z,10.47
2019-05-30T05:22:39.936Z,10.47
2019-05-30T05:23:15.048Z,10.52
2019-05-30T05:23:50.581Z,10.58
2019-05-30T05:24:26.312Z,10.55
2019-05-30T05:25:01.099Z,10.52
2019-05-30T05:25:36.630Z,10.56
2019-05-30T05:26:13.429Z,10.52
2019-05-30T05:26:48.469Z,10.57
2019-05-30T05:27:24.171Z,10.61
2019-05-30T05:27:59.878Z,10.71
2019-05-30T05:28:34.714Z,10.78
2019-05-30T05:29:10.333Z,10.77
2019-05-30T05:29:45.790Z,10.79
2019-05-30T05:30:20.736Z,10.77
2019-05-30T05:30:56.089Z,10.85
2019-05-30T05:31:31.621Z,10.95
2019-05-30T05:32:06.374Z,11.04
2019-05-30T05:32:41.880Z,11.08
2019-05-30T05:33:18.597Z,11.06
2019-05-30T05:33:56.653Z,11.08
2019-05-30T05:34:30.772Z,11.05
2019-05-30T05:35:08.823Z,11.15
2019-05-30T05:35:43.632Z,11.16
2019-05-30T05:36:18.951Z,11.17
2019-05-30T05:36:53.937Z,11.23
2019-05-30T05:37:28.600Z,11.27
2019-05-30T05:38:04.283Z,11.39
2019-05-30T05:38:39.283Z,11.38
2019-05-30T05:39:14.004Z,11.35
2019-05-30T05:39:49.066Z,11.33
2019-05-30T05:40:24.958Z,11.34
2019-05-30T05:40:59.577Z,11.39
2019-05-30T05:41:35.148Z,11.50
2019-05-30T05:42:11.035Z,11.51
2019-05-30T05:42:45.705Z,11.47
2019-05-30T05:43:22.401Z,11.48
2019-05-30T05:43:58.008Z,11.53
2019-05-30T05:44:32.931Z,11.56
2019-05-30T05:45:09.752Z,11.64
2019-05-30T05:45:45.213Z,11.77
2019-05-30T05:46:20.357Z,11.75
2019-05-30T05:46:56.139Z,11.79
2019-05-30T05:47:31.670Z,11.82
2019-05-30T05:48:06.487Z,11.90
2019-05-30T05:48:41.584Z,11.91
2019-05-30T05:49:18.407Z,11.97
2019-05-30T05:49:53.335Z,11.91
2019-05-30T05:50:28.861Z,11.97
2019-05-30T05:51:04.648Z,12.06
2019-05-30T05:51:39.323Z,12.05
2019-05-30T05:52:14.322Z,12.11
2019-05-30T05:52:49.847Z,12.11
2019-05-30T05:53:25.086Z,12.18
2019-05-30T05:54:00.701Z,12.30
2019-05-30T05:54:36.300Z,12.21
2019-05-30T05:55:11.692Z,12.25
2019-05-30T05:55:47.303Z,12.39
2019-05-30T05:56:22.981Z,12.35
2019-05-30T05:56:57.911Z,12.41
2019-05-30T05:57:33.103Z,12.48
2019-05-30T05:58:08.525Z,12.46
2019-05-30T05:58:43.415Z,12.53
2019-05-30T05:59:19.072Z,12.56
2019-05-30T05:59:54.529Z,12.62
2019-05-30T06:00:29.682Z,12.71
2019-05-30T06:01:05.774Z,12.77
2019-05-30T06:01:41.385Z,12.74
2019-05-30T06:02:17.566Z,12.79
2019-05-30T06:02:53.428Z,12.80
2019-05-30T06:03:28.937Z,12.83
2019-05-30T06:04:12.593Z,12.87
2019-05-30T06:04:40.985Z,12.96
2019-05-30T06:05:16.579Z,13.03
2019-05-30T06:05:53.393Z,13.04
2019-05-30T06:06:31.301Z,13.05
2019-05-30T06:07:05.506Z,13.04
2019-05-30T06:07:41.202Z,13.02
2019-05-30T06:08:17.373Z,13.11
2019-05-30T06:08:53.063Z,13.13
2019-05-30T06:09:28.792Z,13.20
2019-05-30T06:10:06.046Z,13.21
2019-05-30T06:10:41.583Z,13.35
2019-05-30T06:11:16.652Z,13.37
2019-05-30T06:11:52.244Z,13.37
2019-05-30T06:12:27.964Z,13.38
2019-05-30T06:13:02.647Z,13.36
2019-05-30T06:13:38.315Z,13.40
2019-05-30T06:14:13.810Z,13.49
2019-05-30T06:14:48.659Z,13.43
2019-05-30T06:15:25.000Z,13.50
2019-05-30T06:16:00.195Z,13.61
2019-05-30T06:16:35.103Z,13.69
2019-05-30T06:17:10.643Z,13.68
2019-05-30T06:17:46.219Z,13.66
2019-05-30T06:18:22.172Z,13.67
2019-05-30T06:18:57.725Z,13.67
2019-05-30T06:19:45.960Z,13.59
2019-05-30T06:20:10.542Z,13.64
2019-05-30T06:20:51.942Z,13.64
2019-05-30T06:21:27.557Z,13.69
2019-05-30T06:22:02.607Z,13.81
2019-05-30T06:22:38.044Z,13.85
2019-05-30T06:23:13.623Z,13.94
2019-05-30T06:23:48.285Z,13.96
2019-05-30T06:24:23.827Z,14.00
2019-05-30T06:24:59.428Z,14.04
2019-05-30T06:25:34.112Z,14.07
2019-05-30T06:26:09.652Z,14.13
2019-05-30T06:26:45.120Z,14.10
2019-05-30T06:27:20.136Z,14.15
2019-05-30T06:27:55.837Z,14.20
2019-05-30T06:28:31.428Z,14.25
2019-05-30T06:29:06.135Z,14.28
2019-05-30T06:29:41.703Z,14.29
2019-05-30T06:30:18.232Z,14.35
2019-05-30T06:30:53.110Z,14.47
2019-05-30T06:31:28.753Z,14.49
2019-05-30T06:32:04.462Z,14.42
2019-05-30T06:32:39.294Z,14.46
2019-05-30T06:33:14.948Z,14.52
2019-05-30T06:33:50.045Z,14.54
2019-05-30T06:34:32.326Z,14.59
2019-05-30T06:35:02.066Z,14.58
2019-05-30T06:35:37.505Z,14.62
2019-05-30T06:36:12.173Z,14.63
2019-05-30T06:36:47.647Z,14.68
2019-05-30T06:37:23.213Z,14.71
2019-05-30T06:37:57.897Z,14.79
2019-05-30T06:38:33.678Z,14.64
2019-05-30T06:39:10.570Z,14.68
2019-05-30T06:39:45.329Z,14.77
2019-05-30T06:40:21.366Z,14.81
2019-05-30T06:40:57.021Z,14.88
2019-05-30T06:41:31.842Z,14.88
2019-05-30T06:42:07.420Z,14.95
2019-05-30T06:42:43.088Z,15.00
2019-05-30T06:43:17.701Z,14.87
2019-05-30T06:43:53.492Z,14.97
2019-05-30T06:44:28.608Z,15.00
2019-05-30T06:45:03.682Z,14.81
2019-05-30T06:45:38.747Z,14.56
2019-05-30T06:46:14.200Z,14.73
2019-05-30T06:46:49.043Z,14.86
2019-05-30T06:47:24.663Z,14.88
2019-05-30T06:48:00.107Z,14.99
2019-05-30T06:48:34.839Z,15.08
2019-05-30T06:49:10.447Z,14.90
2019-05-30T06:49:45.830Z,14.80
2019-05-30T06:50:21.067Z,14.93
2019-05-30T06:50:56.693Z,14.93
2019-05-30T06:51:32.183Z,14.99
2019-05-30T06:52:07.157Z,15.03
2019-05-30T06:52:42.891Z,15.08
2019-05-30T06:53:18.319Z,15.15
2019-05-30T06:53:53.280Z,15.23
2019-05-30T06:54:29.526Z,15.17
2019-05-30T06:55:06.190Z,15.17
2019-05-30T06:55:40.848Z,15.28
2019-05-30T06:56:16.748Z,15.33
2019-05-30T06:56:52.305Z,15.36
2019-05-30T06:57:27.332Z,15.40
2019-05-30T06:58:02.804Z,15.47
2019-05-30T06:58:48.049Z,15.48
2019-05-30T06:59:14.558Z,15.58
2019-05-30T06:59:50.376Z,15.61
2019-05-30T07:00:26.583Z,15.65
2019-05-30T07:01:02.608Z,15.70
2019-05-30T07:01:38.375Z,15.75
2019-05-30T07:02:13.888Z,15.75
2019-05-30T07:02:48.600Z,15.82
2019-05-30T07:03:24.356Z,15.87
2019-05-30T07:04:00.127Z,15.94
2019-05-30T07:04:51.005Z,15.92
2019-05-30T07:05:13.535Z,15.87
2019-05-30T07:05:49.999Z,15.92
2019-05-30T07:06:27.520Z,15.91
2019-05-30T07:07:05.964Z,15.93
2019-05-30T07:07:40.921Z,16.02
2019-05-30T07:08:15.523Z,15.99
2019-05-30T07:08:50.962Z,16.04
2019-05-30T07:09:26.836Z,15.85
2019-05-30T07:10:01.544Z,15.95
2019-05-30T07:10:37.040Z,16.06
2019-05-30T07:11:12.835Z,16.14
2019-05-30T07:11:47.326Z,16.13
2019-05-30T07:12:23.165Z,16.04
2019-05-30T07:12:58.648Z,16.10
2019-05-30T07:13:33.750Z,16.09
2019-05-30T07:14:09.545Z,16.05
2019-05-30T07:14:44.557Z,16.12
2019-05-30T07:15:19.680Z,16.14
2019-05-30T07:15:55.214Z,16.04
2019-05-30T07:16:31.509Z,16.09
2019-05-30T07:17:06.436Z,15.93
2019-05-30T07:17:42.273Z,16.03
2019-05-30T07:18:17.722Z,16.04
2019-05-30T07:18:52.551Z,16.10
2019-05-30T07:19:28.094Z,16.14
2019-05-30T07:20:03.740Z,16.17
2019-05-30T07:20:38.551Z,16.17
2019-05-30T07:21:13.920Z,16.15
2019-05-30T07:21:49.367Z,16.04
2019-05-30T07:22:24.026Z,16.11
2019-05-30T07:22:59.419Z,16.12
2019-05-30T07:23:38.841Z,16.11
2019-05-30T07:24:11.424Z,16.17
2019-05-30T07:24:46.861Z,16.07
2019-05-30T07:25:23.668Z,16.30
2019-05-30T07:25:58.570Z,16.39
2019-05-30T07:26:34.160Z,16.35
2019-05-30T07:27:09.781Z,16.21
2019-05-30T07:27:44.681Z,16.26
2019-05-30T07:28:20.112Z,16.21
2019-05-30T07:28:55.677Z,16.36
2019-05-30T07:29:30.361Z,16.41
2019-05-30T07:30:08.147Z,16.03
2019-05-30T07:30:43.619Z,16.20
2019-05-30T07:31:18.252Z,16.31
2019-05-30T07:31:53.628Z,16.25
2019-05-30T07:32:30.034Z,16.27
2019-05-30T07:33:04.822Z,16.34
2019-05-30T07:33:40.342Z,16.34
2019-05-30T07:34:15.879Z,16.43
2019-05-30T07:35:05.520Z,16.54
2019-05-30T07:35:28.324Z,16.58
2019-05-30T07:36:03.735Z,16.57
2019-05-30T07:36:38.511Z,16.64
2019-05-30T07:37:14.037Z,16.68
2019-05-30T07:37:49.791Z,16.57
2019-05-30T07:38:24.556Z,16.39
2019-05-30T07:38:59.916Z,16.37
2019-05-30T07:39:37.361Z,16.55
2019-05-30T07:40:13.570Z,16.63
2019-05-30T07:40:49.026Z,16.53
2019-05-30T07:41:24.705Z,16.67
2019-05-30T07:42:06.041Z,16.61
2019-05-30T07:42:36.722Z,16.56
2019-05-30T07:43:12.330Z,16.59
2019-05-30T07:43:46.995Z,16.47
2019-05-30T07:44:22.668Z,16.49
2019-05-30T07:44:58.407Z,16.03
2019-05-30T07:45:33.193Z,16.23
2019-05-30T07:46:08.842Z,16.35
2019-05-30T07:46:44.227Z,16.49
2019-05-30T07:47:18.988Z,16.40
2019-05-30T07:47:54.518Z,16.53
2019-05-30T07:48:30.225Z,16.62
2019-05-30T07:49:05.245Z,16.59
2019-05-30T07:49:40.774Z,16.69
2019-05-30T07:50:16.777Z,16.35